createdAt,value
2023-11-02T00:00:38.734Z,89.04
2023-11-02T00:01:38.997Z,88.94
2023-11-02T00:02:39.118Z,88.84
2023-11-02T00:03:39.273Z,88.84
2023-11-02T00:04:39.480Z,88.84
2023-11-02T00:05:38.644Z,88.84
2023-11-02T00:06:39.172Z,88.94
2023-11-02T00:07:39.052Z,88.94
2023-11-02T00:08:39.268Z,88.94
2023-11-02T00:09:39.496Z,89.25
2023-11-02T00:10:38.737Z,89.45
2023-11-02T00:11:38.896Z,89.45
2023-11-02T00:12:39.152Z,89.45
2023-11-02T00:13:39.493Z,89.86
2023-11-02T00:14:38.506Z,89.90
2023-11-02T00:15:38.734Z,90.00
2023-11-02T00:16:38.963Z,90.21
2023-11-02T00:17:39.215Z,90.62
2023-11-02T00:18:39.593Z,90.72
2023-11-02T00:19:38.574Z,90.62
2023-11-02T00:20:38.816Z,90.92
2023-11-02T00:21:39.002Z,90.92
2023-11-02T00:22:39.231Z,90.72
2023-11-02T00:23:38.436Z,90.72
2023-11-02T00:24:38.642Z,90.82
2023-11-02T00:25:38.891Z,90.92
2023-11-02T00:26:39.108Z,91.03
2023-11-02T00:27:39.444Z,91.13
2023-11-02T00:28:38.653Z,91.13
2023-11-02T00:29:38.762Z,91.13
2023-11-02T00:30:39.020Z,91.03
2023-11-02T00:31:39.222Z,90.92
2023-11-02T00:32:38.504Z,90.92
2023-11-02T00:33:38.809Z,90.92
2023-11-02T00:34:38.923Z,90.92
2023-11-02T00:35:39.242Z,90.92
2023-11-02T00:36:38.346Z,91.03
2023-11-02T00:37:38.589Z,91.13
2023-11-02T00:38:38.750Z,91.03
2023-11-02T00:39:38.917Z,90.82
2023-11-02T00:40:39.162Z,90.82
2023-11-02T00:41:38.316Z,90.72
2023-11-02T00:42:38.542Z,90.82
2023-11-02T00:43:38.767Z,90.62
2023-11-02T00:44:39.010Z,90.62
2023-11-02T00:45:38.109Z,90.62
2023-11-02T00:46:38.298Z,90.82
2023-11-02T00:47:38.646Z,90.62
2023-11-02T00:48:38.769Z,90.52
2023-11-02T00:49:38.937Z,90.52
2023-11-02T00:50:38.143Z,90.41
2023-11-02T00:51:38.313Z,90.52
2023-11-02T00:52:38.548Z,90.41
2023-11-02T00:53:38.759Z,90.72
2023-11-02T00:54:38.974Z,90.72
2023-11-02T00:55:38.126Z,90.62
2023-11-02T00:56:38.406Z,90.62
2023-11-02T00:57:38.584Z,90.41
2023-11-02T00:58:38.772Z,90.62
2023-11-02T00:59:37.973Z,90.72
2023-11-02T01:00:38.243Z,90.62
2023-11-02T01:01:38.414Z,90.62
2023-11-02T01:02:38.657Z,90.52
2023-11-02T01:03:38.904Z,90.62
2023-11-02T01:04:39.068Z,90.72
2023-11-02T01:05:38.300Z,90.72
2023-11-02T01:06:38.573Z,90.82
2023-11-02T01:07:38.746Z,91.03
2023-11-02T01:08:37.953Z,91.17
2023-11-02T01:09:38.143Z,91.27
2023-11-02T01:10:38.395Z,91.58
2023-11-02T01:11:38.635Z,91.38
2023-11-02T01:12:37.779Z,91.58
2023-11-02T01:13:37.952Z,91.48
2023-11-02T01:14:38.152Z,91.58
2023-11-02T01:15:38.408Z,91.48
2023-11-02T01:16:38.681Z,91.27
2023-11-02T01:17:37.870Z,91.38
2023-11-02T01:18:38.130Z,91.48
2023-11-02T01:19:38.321Z,91.58
2023-11-02T01:20:38.474Z,91.58
2023-11-02T01:21:37.671Z,91.69
2023-11-02T01:22:38.056Z,91.48
2023-11-02T01:23:38.130Z,91.38
2023-11-02T01:24:38.337Z,91.48
2023-11-02T01:25:38.521Z,91.38
2023-11-02T01:26:37.833Z,91.38
2023-11-02T01:27:38.087Z,91.69
2023-11-02T01:28:38.341Z,91.48
2023-11-02T01:29:39.301Z,91.17
2023-11-02T01:30:37.666Z,91.38
2023-11-02T01:31:37.870Z,91.58
2023-11-02T01:32:38.211Z,91.48
2023-11-02T01:33:38.578Z,91.38
2023-11-02T01:34:37.582Z,91.38
2023-11-02T01:35:37.736Z,91.48
2023-11-02T01:36:38.017Z,91.48
2023-11-02T01:37:38.177Z,91.27
2023-11-02T01:38:38.467Z,91.17
2023-11-02T01:39:37.568Z,91.27
2023-11-02T01:40:37.777Z,90.97
2023-11-02T01:41:37.996Z,90.97
2023-11-02T01:42:38.237Z,91.07
2023-11-02T01:43:37.482Z,91.07
2023-11-02T01:44:37.694Z,90.97
2023-11-02T01:45:37.939Z,91.07
2023-11-02T01:46:38.125Z,91.07
2023-11-02T01:47:37.393Z,91.17
2023-11-02T01:48:37.662Z,91.27
2023-11-02T01:49:37.819Z,91.17
2023-11-02T01:50:38.027Z,91.17
2023-11-02T01:51:38.258Z,91.07
2023-11-02T01:52:37.486Z,91.07
2023-11-02T01:53:37.692Z,91.17
2023-11-02T01:54:37.874Z,91.07
2023-11-02T01:55:38.100Z,91.27
2023-11-02T01:56:37.277Z,91.17
2023-11-02T01:57:37.541Z,91.07
2023-11-02T01:58:37.747Z,91.27
2023-11-02T01:59:38.040Z,91.38
2023-11-02T02:00:37.326Z,91.27
2023-11-02T02:01:37.396Z,91.27
2023-11-02T02:02:37.665Z,91.17
2023-11-02T02:03:37.924Z,91.07
2023-11-02T02:04:38.067Z,90.97
2023-11-02T02:05:37.304Z,90.86
2023-11-02T02:06:37.519Z,90.86
2023-11-02T02:07:37.722Z,91.07
2023-11-02T02:08:37.872Z,90.97
2023-11-02T02:09:37.108Z,90.86
2023-11-02T02:10:37.432Z,90.97
2023-11-02T02:11:37.665Z,90.86
2023-11-02T02:12:37.857Z,90.86
2023-11-02T02:13:36.960Z,90.77
2023-11-02T02:14:37.182Z,91.07
2023-11-02T02:15:37.597Z,90.97
2023-11-02T02:16:37.633Z,90.86
2023-11-02T02:17:37.834Z,90.86
2023-11-02T02:18:37.118Z,90.97
2023-11-02T02:19:37.364Z,91.07
2023-11-02T02:20:37.554Z,90.97
2023-11-02T02:21:37.743Z,90.97
2023-11-02T02:22:36.947Z,91.17
2023-11-02T02:23:37.196Z,91.07
2023-11-02T02:24:37.431Z,90.86
2023-11-02T02:25:38.629Z,90.97
2023-11-02T02:26:36.829Z,91.07
2023-11-02T02:27:37.129Z,91.27
2023-11-02T02:28:37.365Z,91.07
2023-11-02T02:29:37.535Z,90.86
2023-11-02T02:30:36.757Z,90.86
2023-11-02T02:31:36.990Z,90.77
2023-11-02T02:32:37.282Z,90.66
2023-11-02T02:33:37.606Z,90.86
2023-11-02T02:34:36.725Z,91.07
2023-11-02T02:35:36.949Z,90.97
2023-11-02T02:36:37.163Z,90.97
2023-11-02T02:37:37.465Z,90.77
2023-11-02T02:38:37.659Z,90.86
2023-11-02T02:39:36.802Z,90.86
2023-11-02T02:40:37.065Z,90.45
2023-11-02T02:41:37.266Z,90.45
2023-11-02T02:42:37.620Z,90.45
2023-11-02T02:43:36.700Z,90.25
2023-11-02T02:44:36.894Z,90.36
2023-11-02T02:45:37.164Z,90.25
2023-11-02T02:46:37.343Z,90.15
2023-11-02T02:47:36.592Z,90.05
2023-11-02T02:48:36.958Z,89.94
2023-11-02T02:49:36.967Z,89.70
2023-11-02T02:50:37.166Z,89.84
2023-11-02T02:51:37.409Z,89.80
2023-11-02T02:52:36.585Z,90.05
2023-11-02T02:53:36.844Z,90.05
2023-11-02T02:54:37.118Z,90.15
2023-11-02T02:55:37.265Z,90.36
2023-11-02T02:56:36.486Z,90.15
2023-11-02T02:57:36.732Z,90.15
2023-11-02T02:58:36.879Z,90.05
2023-11-02T02:59:37.056Z,89.84
2023-11-02T03:00:37.532Z,89.74
2023-11-02T03:01:36.514Z,89.80
2023-11-02T03:02:36.695Z,89.50
2023-11-02T03:03:37.036Z,89.29
2023-11-02T03:04:37.138Z,89.39
2023-11-02T03:05:36.319Z,89.50
2023-11-02T03:06:36.637Z,89.53
2023-11-02T03:07:36.768Z,89.29
2023-11-02T03:08:36.996Z,89.29
2023-11-02T03:09:37.223Z,89.39
2023-11-02T03:10:36.423Z,89.18
2023-11-02T03:11:36.611Z,89.18
2023-11-02T03:12:36.961Z,89.50
2023-11-02T03:13:37.077Z,89.09
2023-11-02T03:14:36.239Z,89.09
2023-11-02T03:15:36.497Z,89.18
2023-11-02T03:16:36.668Z,89.29
2023-11-02T03:17:36.940Z,89.18
2023-11-02T03:18:36.223Z,89.18
2023-11-02T03:19:36.405Z,89.09
2023-11-02T03:20:36.558Z,89.09
2023-11-02T03:21:36.863Z,89.23
2023-11-02T03:22:36.013Z,89.33
2023-11-02T03:23:36.206Z,89.12
2023-11-02T03:24:36.505Z,89.09
2023-11-02T03:25:36.687Z,88.78
2023-11-02T03:26:36.904Z,89.12
2023-11-02T03:27:36.060Z,89.03
2023-11-02T03:28:36.378Z,89.18
2023-11-02T03:29:36.578Z,89.43
2023-11-02T03:30:36.788Z,89.43
2023-11-02T03:31:35.952Z,89.53
2023-11-02T03:32:36.217Z,89.33
2023-11-02T03:33:36.485Z,89.23
2023-11-02T03:34:36.618Z,89.23
2023-11-02T03:35:36.857Z,88.92
2023-11-02T03:36:36.101Z,89.03
2023-11-02T03:37:36.318Z,88.92
2023-11-02T03:38:36.567Z,88.92
2023-11-02T03:39:36.843Z,88.92
2023-11-02T03:40:36.122Z,88.92
2023-11-02T03:41:36.257Z,88.51
2023-11-02T03:42:36.536Z,88.62
2023-11-02T03:43:36.775Z,88.31
2023-11-02T03:44:35.926Z,88.10
2023-11-02T03:45:36.268Z,88.10
2023-11-02T03:46:36.383Z,88.10
2023-11-02T03:47:36.734Z,87.90
2023-11-02T03:48:35.911Z,87.79
2023-11-02T03:49:36.095Z,87.59
2023-11-02T03:50:36.417Z,87.04
2023-11-02T03:51:36.578Z,87.04
2023-11-02T03:52:35.806Z,87.14
2023-11-02T03:53:36.062Z,86.83
2023-11-02T03:54:36.265Z,86.73
2023-11-02T03:55:36.568Z,86.94
2023-11-02T03:56:35.807Z,86.67
2023-11-02T03:57:35.724Z,86.63
2023-11-02T03:58:35.907Z,86.73
2023-11-02T03:59:36.112Z,86.53
2023-11-02T04:00:36.423Z,86.63
2023-11-02T04:01:35.587Z,86.67
2023-11-02T04:02:35.875Z,86.63
2023-11-02T04:03:35.999Z,86.77
2023-11-02T04:04:35.644Z,86.36
2023-11-02T04:05:35.870Z,86.67
2023-11-02T04:06:36.140Z,86.02
2023-11-02T04:07:36.286Z,85.81
2023-11-02T04:08:35.445Z,85.71
2023-11-02T04:09:35.642Z,85.61
2023-11-02T04:10:35.846Z,85.61
2023-11-02T04:11:36.031Z,85.61
2023-11-02T04:12:36.452Z,85.10
2023-11-02T04:13:35.472Z,85.10
2023-11-02T04:14:35.660Z,85.10
2023-11-02T04:15:35.943Z,85.10
2023-11-02T04:16:36.047Z,84.69
2023-11-02T04:17:36.839Z,84.79
2023-11-02T04:18:35.469Z,84.69
2023-11-02T04:19:35.684Z,84.17
2023-11-02T04:20:35.892Z,84.38
2023-11-02T04:21:36.097Z,84.17
2023-11-02T04:22:35.272Z,84.07
2023-11-02T04:23:35.455Z,83.66
2023-11-02T04:24:35.645Z,83.42
2023-11-02T04:25:35.852Z,83.73
2023-11-02T04:26:36.111Z,83.32
2023-11-02T04:27:35.443Z,83.73
2023-11-02T04:28:35.558Z,83.62
2023-11-02T04:29:36.788Z,83.11
2023-11-02T04:30:35.950Z,83.11
2023-11-02T04:31:35.128Z,83.42
2023-11-02T04:32:35.369Z,83.42
2023-11-02T04:33:35.644Z,83.01
2023-11-02T04:34:36.059Z,83.32
2023-11-02T04:35:36.108Z,82.70
2023-11-02T04:36:35.288Z,83.22
2023-11-02T04:37:35.513Z,82.81
2023-11-02T04:38:35.806Z,82.91
2023-11-02T04:39:35.994Z,83.22
2023-11-02T04:40:35.230Z,83.62
2023-11-02T04:41:35.363Z,83.62
2023-11-02T04:42:35.720Z,83.93
2023-11-02T04:43:35.892Z,84.34
2023-11-02T04:44:35.067Z,84.85
2023-11-02T04:45:35.596Z,84.99
2023-11-02T04:46:35.582Z,85.20
2023-11-02T04:47:35.817Z,85.30
2023-11-02T04:48:35.064Z,85.71
2023-11-02T04:49:35.289Z,86.22
2023-11-02T04:50:35.685Z,85.91
2023-11-02T04:51:35.740Z,85.61
2023-11-02T04:52:34.961Z,85.81
2023-11-02T04:53:35.199Z,86.32
2023-11-02T04:54:35.484Z,86.73
2023-11-02T04:55:35.680Z,87.38
2023-11-02T04:56:34.898Z,87.08
2023-11-02T04:57:35.182Z,87.29
2023-11-02T04:58:35.405Z,87.59
2023-11-02T04:59:35.595Z,87.29
2023-11-02T05:00:34.878Z,87.18
2023-11-02T05:01:36.099Z,87.38
2023-11-02T05:02:35.394Z,86.98
2023-11-02T05:03:35.677Z,87.38
2023-11-02T05:04:34.800Z,87.18
2023-11-02T05:05:35.016Z,87.49
2023-11-02T05:06:35.394Z,87.49
2023-11-02T05:07:35.557Z,87.70
2023-11-02T05:08:34.698Z,87.18
2023-11-02T05:09:34.966Z,87.59
2023-11-02T05:10:35.187Z,87.49
2023-11-02T05:11:35.528Z,86.77
2023-11-02T05:12:34.675Z,86.88
2023-11-02T05:13:34.983Z,87.49
2023-11-02T05:14:35.164Z,87.38
2023-11-02T05:15:35.416Z,86.98
2023-11-02T05:16:34.622Z,87.18
2023-11-02T05:17:34.915Z,87.22
2023-11-02T05:18:35.101Z,87.29
2023-11-02T05:19:35.356Z,87.22
2023-11-02T05:20:34.524Z,87.38
2023-11-02T05:21:34.807Z,87.22
2023-11-02T05:22:34.997Z,86.67
2023-11-02T05:23:35.245Z,86.57
2023-11-02T05:24:34.506Z,86.67
2023-11-02T05:25:34.680Z,86.77
2023-11-02T05:26:34.950Z,86.67
2023-11-02T05:27:35.206Z,86.67
2023-11-02T05:28:35.460Z,86.57
2023-11-02T05:29:34.641Z,86.88
2023-11-02T05:30:34.926Z,86.88
2023-11-02T05:31:35.068Z,86.88
2023-11-02T05:32:35.373Z,87.29
2023-11-02T05:33:34.577Z,87.29
2023-11-02T05:34:34.979Z,87.18
2023-11-02T05:35:35.090Z,87.38
2023-11-02T05:36:35.308Z,87.29
2023-11-02T05:37:34.484Z,87.59
2023-11-02T05:38:34.749Z,87.79
2023-11-02T05:39:34.971Z,87.79
2023-11-02T05:40:35.251Z,87.70
2023-11-02T05:41:34.489Z,88.00
2023-11-02T05:42:34.678Z,88.00
2023-11-02T05:43:34.866Z,88.41
2023-11-02T05:44:35.134Z,88.31
2023-11-02T05:45:34.409Z,88.51
2023-11-02T05:46:34.651Z,88.20
2023-11-02T05:47:34.907Z,88.31
2023-11-02T05:48:35.138Z,88.35
2023-11-02T05:49:34.347Z,88.65
2023-11-02T05:50:36.188Z,88.56
2023-11-02T05:51:34.788Z,88.76
2023-11-02T05:52:34.980Z,88.96
2023-11-02T05:53:34.192Z,89.17
2023-11-02T05:54:34.541Z,89.06
2023-11-02T05:55:34.701Z,89.37
2023-11-02T05:56:34.946Z,89.37
2023-11-02T05:57:34.113Z,89.06
2023-11-02T05:58:34.359Z,89.27
2023-11-02T05:59:34.626Z,89.17
2023-11-02T06:00:38.049Z,89.17
2023-11-02T06:01:34.089Z,89.17
2023-11-02T06:02:34.379Z,89.37
2023-11-02T06:03:34.646Z,89.37
2023-11-02T06:04:34.862Z,89.17
2023-11-02T06:05:34.073Z,89.27
2023-11-02T06:06:34.346Z,89.37
2023-11-02T06:07:34.506Z,89.37
2023-11-02T06:08:34.750Z,88.96
2023-11-02T06:09:34.024Z,88.62
2023-11-02T06:10:34.206Z,88.20
2023-11-02T06:11:34.452Z,88.10
2023-11-02T06:12:34.719Z,88.10
2023-11-02T06:13:33.923Z,88.00
2023-11-02T06:14:34.107Z,88.00
2023-11-02T06:15:34.353Z,87.79
2023-11-02T06:16:34.627Z,87.65
2023-11-02T06:17:33.802Z,87.55
2023-11-02T06:18:34.182Z,87.65
2023-11-02T06:19:34.404Z,87.55
2023-11-02T06:20:34.544Z,87.45
2023-11-02T06:21:33.791Z,87.55
2023-11-02T06:22:33.976Z,87.65
2023-11-02T06:23:34.276Z,87.14
2023-11-02T06:24:34.643Z,87.14
2023-11-02T06:25:33.729Z,86.94
2023-11-02T06:26:34.011Z,86.73
2023-11-02T06:27:34.259Z,87.14
2023-11-02T06:28:34.505Z,87.24
2023-11-02T06:29:33.862Z,87.35
2023-11-02T06:30:35.950Z,87.35
2023-11-02T06:31:34.217Z,87.65
2023-11-02T06:32:34.516Z,87.85
2023-11-02T06:33:33.833Z,87.55
2023-11-02T06:34:34.973Z,87.35
2023-11-02T06:35:34.190Z,87.35
2023-11-02T06:36:34.497Z,87.65
2023-11-02T06:37:33.598Z,87.76
2023-11-02T06:38:33.816Z,87.65
2023-11-02T06:39:34.159Z,87.85
2023-11-02T06:40:34.314Z,88.06
2023-11-02T06:41:33.567Z,87.76
2023-11-02T06:42:33.787Z,87.76
2023-11-02T06:43:34.026Z,87.85
2023-11-02T06:44:34.275Z,88.26
2023-11-02T06:45:33.483Z,88.06
2023-11-02T06:46:33.763Z,88.06
2023-11-02T06:47:34.024Z,88.26
2023-11-02T06:48:34.327Z,88.37
2023-11-02T06:49:33.544Z,88.57
2023-11-02T06:50:33.765Z,88.47
2023-11-02T06:51:34.056Z,88.88
2023-11-02T06:52:34.414Z,88.78
2023-11-02T06:53:33.459Z,88.98
2023-11-02T06:54:33.755Z,88.78
2023-11-02T06:55:34.007Z,88.78
2023-11-02T06:56:34.195Z,88.88
2023-11-02T06:57:33.629Z,88.78
2023-11-02T06:58:33.665Z,88.98
2023-11-02T06:59:33.959Z,88.98
2023-11-02T07:00:34.160Z,89.09
2023-11-02T07:01:33.310Z,89.18
2023-11-02T07:02:33.577Z,89.50
2023-11-02T07:03:33.863Z,89.70
2023-11-02T07:04:34.125Z,89.80
2023-11-02T07:05:33.294Z,89.70
2023-11-02T07:06:33.483Z,89.90
2023-11-02T07:07:33.672Z,89.94
2023-11-02T07:08:33.944Z,89.90
2023-11-02T07:09:33.200Z,90.00
2023-11-02T07:10:33.366Z,90.11
2023-11-02T07:11:33.600Z,90.11
2023-11-02T07:12:33.889Z,90.25
2023-11-02T07:13:33.040Z,90.36
2023-11-02T07:14:33.395Z,90.56
2023-11-02T07:15:33.624Z,90.66
2023-11-02T07:16:33.730Z,90.86
2023-11-02T07:17:32.946Z,91.07
2023-11-02T07:18:33.267Z,91.07
2023-11-02T07:19:33.521Z,91.17
2023-11-02T07:20:33.652Z,91.17
2023-11-02T07:21:32.881Z,91.17
2023-11-02T07:22:33.073Z,91.17
2023-11-02T07:23:33.346Z,91.27
2023-11-02T07:24:33.634Z,91.27
2023-11-02T07:25:32.790Z,91.17
2023-11-02T07:26:33.013Z,91.38
2023-11-02T07:27:33.309Z,91.69
2023-11-02T07:28:33.489Z,91.99
2023-11-02T07:29:33.728Z,92.30
2023-11-02T07:30:33.093Z,92.91
2023-11-02T07:31:33.154Z,93.32
2023-11-02T07:32:33.393Z,93.73
2023-11-02T07:33:33.691Z,93.93
2023-11-02T07:34:32.874Z,94.04
2023-11-02T07:35:33.091Z,94.14
2023-11-02T07:36:33.423Z,93.63
2023-11-02T07:37:33.563Z,93.73
2023-11-02T07:38:32.689Z,93.63
2023-11-02T07:39:34.066Z,93.63
2023-11-02T07:40:33.206Z,93.84
2023-11-02T07:41:33.415Z,93.52
2023-11-02T07:42:32.691Z,93.32
2023-11-02T07:43:32.829Z,92.97
2023-11-02T07:44:33.127Z,92.87
2023-11-02T07:45:33.410Z,92.87
2023-11-02T07:46:33.562Z,92.97
2023-11-02T07:47:32.881Z,92.97
2023-11-02T07:48:33.131Z,92.87
2023-11-02T07:49:33.289Z,93.07
2023-11-02T07:50:35.428Z,93.18
2023-11-02T07:51:33.778Z,92.87
2023-11-02T07:52:32.957Z,92.87
2023-11-02T07:53:33.209Z,92.56
2023-11-02T07:54:34.008Z,92.46
2023-11-02T07:55:32.647Z,92.42
2023-11-02T07:56:32.903Z,92.52
2023-11-02T07:57:33.261Z,92.52
2023-11-02T07:58:32.380Z,92.42
2023-11-02T07:59:32.638Z,92.42
2023-11-02T08:00:32.869Z,92.42
2023-11-02T08:01:33.078Z,92.21
2023-11-02T08:02:33.291Z,92.21
2023-11-02T08:03:32.576Z,92.01
2023-11-02T08:04:32.789Z,91.91
2023-11-02T08:05:33.008Z,91.96
2023-11-02T08:06:33.424Z,91.96
2023-11-02T08:07:32.456Z,91.86
2023-11-02T08:08:32.696Z,91.86
2023-11-02T08:09:33.130Z,91.96
2023-11-02T08:10:32.185Z,91.86
2023-11-02T08:11:32.509Z,91.66
2023-11-02T08:12:34.212Z,91.66
2023-11-02T08:13:32.937Z,91.96
2023-11-02T08:14:33.115Z,91.76
2023-11-02T08:15:32.347Z,91.35
2023-11-02T08:16:32.551Z,91.56
2023-11-02T08:17:32.823Z,91.46
2023-11-02T08:18:33.070Z,91.46
2023-11-02T08:19:32.256Z,91.20
2023-11-02T08:20:32.512Z,91.11
2023-11-02T08:21:32.759Z,90.90
2023-11-02T08:22:32.937Z,90.49
2023-11-02T08:23:32.081Z,90.59
2023-11-02T08:24:32.315Z,90.29
2023-11-02T08:25:32.523Z,90.39
2023-11-02T08:26:32.760Z,90.08
2023-11-02T08:27:33.002Z,90.14
2023-11-02T08:28:34.724Z,90.14
2023-11-02T08:29:32.393Z,90.14
2023-11-02T08:30:32.674Z,89.94
2023-11-02T08:31:32.874Z,89.94
2023-11-02T08:32:32.082Z,89.94
2023-11-02T08:33:32.322Z,89.84
2023-11-02T08:34:32.755Z,89.73
2023-11-02T08:35:32.697Z,89.84
2023-11-02T08:36:31.924Z,89.84
2023-11-02T08:37:32.220Z,89.73
2023-11-02T08:38:32.372Z,89.84
2023-11-02T08:39:34.279Z,89.59
2023-11-02T08:40:32.811Z,89.69
2023-11-02T08:41:31.988Z,89.59
2023-11-02T08:42:32.278Z,89.18
2023-11-02T08:43:32.580Z,89.69
2023-11-02T08:44:32.734Z,89.79
2023-11-02T08:45:32.081Z,89.49
2023-11-02T08:46:32.135Z,89.28
2023-11-02T08:47:32.442Z,89.08
2023-11-02T08:48:32.643Z,89.18
2023-11-02T08:49:31.839Z,89.59
2023-11-02T08:50:32.004Z,90.10
2023-11-02T08:51:32.305Z,90.31
2023-11-02T08:52:32.471Z,90.51
2023-11-02T08:53:32.712Z,91.22
2023-11-02T08:54:31.884Z,90.92
2023-11-02T08:55:32.043Z,90.71
2023-11-02T08:56:32.304Z,90.71
2023-11-02T08:57:32.578Z,90.81
2023-11-02T08:58:31.720Z,90.71
2023-11-02T08:59:31.852Z,90.71
2023-11-02T09:00:32.130Z,91.12
2023-11-02T09:01:32.347Z,90.92
2023-11-02T09:02:32.508Z,91.39
2023-11-02T09:03:31.703Z,90.98
2023-11-02T09:04:31.976Z,90.88
2023-11-02T09:05:32.120Z,90.88
2023-11-02T09:06:32.442Z,90.88
2023-11-02T09:07:31.541Z,90.47
2023-11-02T09:08:31.757Z,90.57
2023-11-02T09:09:32.041Z,90.57
2023-11-02T09:10:32.235Z,90.36
2023-11-02T09:11:31.425Z,90.57
2023-11-02T09:12:31.718Z,90.88
2023-11-02T09:13:32.795Z,90.77
2023-11-02T09:14:32.137Z,90.22
2023-11-02T09:15:32.391Z,89.81
2023-11-02T09:16:31.547Z,90.01
2023-11-02T09:17:31.799Z,90.32
2023-11-02T09:18:32.060Z,89.61
2023-11-02T09:19:32.256Z,89.81
2023-11-02T09:20:31.374Z,89.40
2023-11-02T09:21:31.774Z,89.61
2023-11-02T09:22:31.905Z,89.40
2023-11-02T09:23:32.034Z,89.51
2023-11-02T09:24:31.239Z,89.16
2023-11-02T09:25:31.437Z,88.55
2023-11-02T09:26:31.625Z,89.16
2023-11-02T09:27:32.095Z,89.06
2023-11-02T09:28:32.986Z,88.55
2023-11-02T09:29:31.205Z,88.34
2023-11-02T09:30:31.426Z,88.75
2023-11-02T09:31:31.593Z,88.24
2023-11-02T09:32:31.803Z,88.45
2023-11-02T09:33:32.161Z,88.24
2023-11-02T09:34:31.173Z,88.65
2023-11-02T09:35:31.357Z,88.55
2023-11-02T09:36:31.625Z,88.51
2023-11-02T09:37:31.758Z,87.90
2023-11-02T09:38:31.958Z,87.69
2023-11-02T09:39:31.191Z,87.69
2023-11-02T09:40:31.322Z,88.10
2023-11-02T09:41:31.529Z,88.20
2023-11-02T09:42:31.777Z,88.31
2023-11-02T09:43:31.922Z,86.77
2023-11-02T09:44:31.097Z,87.38
2023-11-02T09:45:31.411Z,87.08
2023-11-02T09:46:31.693Z,86.77
2023-11-02T09:47:31.666Z,86.47
2023-11-02T09:48:31.935Z,86.98
2023-11-02T09:49:31.081Z,86.47
2023-11-02T09:50:31.260Z,86.06
2023-11-02T09:51:31.487Z,86.22
2023-11-02T09:52:31.695Z,86.02
2023-11-02T09:53:30.881Z,85.72
2023-11-02T09:54:38.407Z,85.72
2023-11-02T09:55:32.289Z,86.02
2023-11-02T09:56:31.483Z,85.82
2023-11-02T09:57:31.761Z,85.31
2023-11-02T09:58:30.881Z,85.51
2023-11-02T09:59:31.100Z,85.61
2023-11-02T10:00:31.329Z,84.70
2023-11-02T10:01:31.501Z,84.45
2023-11-02T10:02:30.686Z,83.84
2023-11-02T10:03:30.961Z,83.44
2023-11-02T10:04:31.125Z,83.13
2023-11-02T10:05:31.379Z,83.84
2023-11-02T10:06:31.587Z,83.95
2023-11-02T10:07:30.698Z,83.44
2023-11-02T10:08:30.882Z,83.95
2023-11-02T10:09:31.143Z,82.93
2023-11-02T10:10:31.317Z,82.59
2023-11-02T10:11:31.523Z,82.99
2023-11-02T10:12:30.748Z,83.09
2023-11-02T10:13:30.939Z,82.28
2023-11-02T10:14:31.129Z,82.59
2023-11-02T10:15:31.386Z,82.28
2023-11-02T10:16:30.546Z,82.68
2023-11-02T10:17:31.766Z,82.07
2023-11-02T10:18:31.022Z,82.07
2023-11-02T10:19:31.314Z,81.57
2023-11-02T10:20:31.390Z,81.16
2023-11-02T10:21:30.596Z,81.26
2023-11-02T10:22:30.802Z,80.35
2023-11-02T10:23:30.989Z,81.67
2023-11-02T10:24:31.248Z,82.07
2023-11-02T10:25:30.417Z,81.37
2023-11-02T10:26:30.780Z,81.16
2023-11-02T10:27:30.846Z,81.16
2023-11-02T10:28:31.057Z,81.16
2023-11-02T10:29:31.255Z,80.55
2023-11-02T10:30:30.484Z,80.65
2023-11-02T10:31:30.602Z,80.15
2023-11-02T10:32:30.860Z,78.92
2023-11-02T10:33:31.049Z,79.23
2023-11-02T10:34:31.284Z,78.17
2023-11-02T10:35:30.412Z,78.99
2023-11-02T10:36:30.586Z,79.50
2023-11-02T10:37:30.774Z,79.50
2023-11-02T10:38:30.975Z,80.00
2023-11-02T10:39:31.181Z,78.28
2023-11-02T10:40:30.393Z,78.68
2023-11-02T10:41:30.527Z,78.28
2023-11-02T10:42:30.885Z,79.29
2023-11-02T10:43:30.914Z,79.19
2023-11-02T10:44:31.133Z,78.99
2023-11-02T10:45:30.378Z,79.09
2023-11-02T10:46:30.634Z,78.28
2023-11-02T10:47:30.726Z,78.68
2023-11-02T10:48:30.944Z,77.77
2023-11-02T10:49:30.186Z,76.86
2023-11-02T10:50:31.349Z,77.36
2023-11-02T10:51:30.490Z,78.89
2023-11-02T10:52:30.690Z,78.48
2023-11-02T10:53:30.897Z,78.48
2023-11-02T10:54:30.070Z,78.38
2023-11-02T10:55:30.231Z,77.87
2023-11-02T10:56:30.397Z,77.16
2023-11-02T10:57:30.626Z,77.47
2023-11-02T10:58:30.801Z,76.95
2023-11-02T10:59:30.926Z,77.36
2023-11-02T11:00:30.136Z,77.36
2023-11-02T11:01:30.229Z,76.34
2023-11-02T11:02:30.468Z,77.97
2023-11-02T11:03:30.602Z,76.45
2023-11-02T11:04:30.828Z,75.80
2023-11-02T11:05:29.874Z,75.60
2023-11-02T11:06:30.122Z,74.41
2023-11-02T11:07:30.197Z,75.12
2023-11-02T11:08:30.399Z,74.31
2023-11-02T11:09:30.577Z,74.62
2023-11-02T11:10:30.767Z,73.80
2023-11-02T11:11:29.851Z,74.92
2023-11-02T11:12:30.068Z,75.33
2023-11-02T11:13:30.291Z,74.72
2023-11-02T11:14:30.397Z,74.01
2023-11-02T11:15:30.637Z,73.91
2023-11-02T11:16:29.789Z,74.72
2023-11-02T11:17:29.985Z,75.12
2023-11-02T11:18:30.246Z,75.43
2023-11-02T11:19:30.380Z,74.72
2023-11-02T11:20:30.576Z,75.12
2023-11-02T11:21:29.745Z,75.33
2023-11-02T11:22:30.043Z,75.73
2023-11-02T11:23:30.134Z,74.92
2023-11-02T11:24:30.372Z,74.82
2023-11-02T11:25:30.535Z,74.62
2023-11-02T11:26:29.707Z,75.73
2023-11-02T11:27:29.968Z,75.23
2023-11-02T11:28:30.193Z,75.63
2023-11-02T11:29:30.356Z,75.73
2023-11-02T11:30:29.587Z,75.63
2023-11-02T11:31:29.728Z,74.82
2023-11-02T11:32:29.971Z,75.26
2023-11-02T11:33:30.185Z,75.67
2023-11-02T11:34:30.397Z,75.06
2023-11-02T11:35:29.612Z,75.98
2023-11-02T11:36:29.796Z,76.38
2023-11-02T11:37:29.929Z,76.28
2023-11-02T11:38:30.133Z,75.46
2023-11-02T11:39:30.423Z,75.57
2023-11-02T11:40:29.976Z,75.98
2023-11-02T11:41:29.756Z,76.55
2023-11-02T11:42:29.881Z,76.14
2023-11-02T11:43:29.989Z,77.20
2023-11-02T11:44:30.194Z,77.20
2023-11-02T11:45:29.356Z,75.57
2023-11-02T11:46:29.619Z,76.07
2023-11-02T11:47:29.757Z,77.50
2023-11-02T11:48:30.001Z,75.46
2023-11-02T11:49:30.174Z,75.87
2023-11-02T11:50:29.331Z,75.67
2023-11-02T11:51:29.582Z,76.18
2023-11-02T11:52:29.819Z,76.28
2023-11-02T11:53:30.031Z,75.67
2023-11-02T11:54:30.190Z,75.67
2023-11-02T11:55:29.970Z,75.06
2023-11-02T11:56:29.510Z,75.87
2023-11-02T11:57:29.761Z,75.77
2023-11-02T11:58:30.007Z,75.26
2023-11-02T11:59:30.149Z,75.37
2023-11-02T12:00:29.384Z,76.68
2023-11-02T12:01:29.488Z,75.53
2023-11-02T12:02:29.707Z,74.31
2023-11-02T12:03:29.866Z,75.02
2023-11-02T12:04:30.170Z,74.76
2023-11-02T12:05:29.257Z,75.46
2023-11-02T12:06:29.450Z,75.26
2023-11-02T12:07:29.680Z,75.37
2023-11-02T12:08:29.869Z,75.16
2023-11-02T12:09:29.042Z,76.48
2023-11-02T12:10:29.240Z,75.84
2023-11-02T12:11:29.422Z,73.80
2023-11-02T12:12:29.655Z,72.48
2023-11-02T12:13:29.828Z,74.07
2023-11-02T12:14:29.534Z,73.06
2023-11-02T12:15:29.236Z,72.85
2023-11-02T12:16:29.435Z,71.73
2023-11-02T12:17:29.618Z,72.55
2023-11-02T12:18:29.958Z,71.50
2023-11-02T12:19:29.648Z,72.72
2023-11-02T12:20:29.200Z,71.80
2023-11-02T12:21:29.456Z,71.70
2023-11-02T12:22:29.671Z,73.63
2023-11-02T12:23:29.789Z,72.55
2023-11-02T12:24:29.026Z,72.65
2023-11-02T12:25:29.234Z,72.45
2023-11-02T12:26:29.385Z,72.65
2023-11-02T12:27:29.719Z,72.55
2023-11-02T12:28:30.032Z,72.99
2023-11-02T12:29:28.984Z,73.50
2023-11-02T12:30:29.177Z,72.38
2023-11-02T12:31:29.403Z,72.78
2023-11-02T12:32:29.595Z,73.19
2023-11-02T12:33:28.760Z,73.30
2023-11-02T12:34:29.041Z,72.28
2023-11-02T12:35:29.165Z,72.89
2023-11-02T12:36:29.474Z,71.67
2023-11-02T12:37:30.709Z,71.26
2023-11-02T12:38:28.756Z,72.34
2023-11-02T12:39:29.071Z,71.94
2023-11-02T12:40:29.251Z,70.52
2023-11-02T12:41:30.299Z,71.12
2023-11-02T12:42:29.583Z,70.82
2023-11-02T12:43:28.716Z,71.43
2023-11-02T12:44:28.924Z,71.03
2023-11-02T12:45:30.290Z,71.73
2023-11-02T12:46:29.401Z,71.03
2023-11-02T12:47:29.527Z,71.03
2023-11-02T12:48:29.717Z,71.60
2023-11-02T12:49:28.973Z,71.80
2023-11-02T12:50:29.053Z,69.95
2023-11-02T12:51:29.506Z,69.34
2023-11-02T12:52:29.433Z,71.16